createdAt,value
2018-12-09T00:00:18.836Z,8.20
2018-12-09T00:02:49.803Z,8.10
2018-12-09T00:05:20.801Z,7.90
2018-12-09T00:07:52.256Z,7.70
2018-12-09T00:10:21.602Z,7.60
2018-12-09T00:12:51.457Z,7.70
2018-12-09T00:15:22.029Z,7.50
2018-12-09T00:17:51.309Z,7.50
2018-12-09T00:20:20.623Z,7.80
2018-12-09T00:22:50.251Z,8.00
2018-12-09T00:25:20.514Z,7.70
2018-12-09T00:27:50.056Z,7.80
2018-12-09T00:30:19.337Z,7.70
2018-12-09T00:32:48.727Z,8.00
2018-12-09T00:35:19.164Z,7.90
2018-12-09T00:37:48.864Z,7.80
2018-12-09T00:40:18.156Z,8.10
2018-12-09T00:42:47.429Z,8.00
2018-12-09T00:45:16.719Z,8.20
2018-12-09T00:47:46.395Z,8.10
2018-12-09T00:50:15.688Z,8.20
2018-12-09T00:52:45.270Z,8.10
2018-12-09T00:55:14.544Z,8.20
2018-12-09T00:57:43.972Z,8.00
2018-12-09T01:00:14.576Z,8.00
2018-12-09T01:02:44.070Z,8.20
2018-12-09T01:05:15.883Z,8.10
2018-12-09T01:07:46.048Z,8.30
2018-12-09T01:10:15.443Z,8.20
2018-12-09T01:12:44.729Z,8.30
2018-12-09T01:15:14.115Z,8.30
2018-12-09T01:17:43.409Z,8.60
2018-12-09T01:20:13.010Z,8.50
2018-12-09T01:22:42.286Z,8.60
2018-12-09T01:25:12.042Z,8.50
2018-12-09T01:27:41.347Z,8.60
2018-12-09T01:30:11.144Z,8.60
2018-12-09T01:32:40.982Z,8.70
2018-12-09T01:35:10.354Z,8.80
2018-12-09T01:37:40.699Z,8.80
2018-12-09T01:40:10.459Z,8.80
2018-12-09T01:42:39.738Z,8.90
2018-12-09T01:45:09.472Z,8.80
2018-12-09T01:47:39.630Z,8.70
2018-12-09T01:50:09.495Z,8.70
2018-12-09T01:52:39.115Z,8.50
2018-12-09T01:55:08.850Z,8.40
2018-12-09T01:57:38.930Z,8.40
2018-12-09T02:00:08.484Z,8.60
2018-12-09T02:02:37.778Z,8.50
2018-12-09T02:05:07.033Z,8.70
2018-12-09T02:07:36.327Z,8.70
2018-12-09T02:10:06.501Z,8.60
2018-12-09T02:12:35.803Z,8.40
2018-12-09T02:15:06.790Z,8.30
2018-12-09T02:17:36.789Z,8.40
2018-12-09T02:20:06.826Z,8.30
2018-12-09T02:22:36.118Z,8.50
2018-12-09T02:25:06.109Z,8.60
2018-12-09T02:27:35.382Z,8.40
2018-12-09T02:30:06.399Z,8.40
2018-12-09T02:32:35.855Z,8.30
2018-12-09T02:35:06.058Z,8.20
2018-12-09T02:37:35.305Z,8.20
2018-12-09T02:40:05.823Z,8.30
2018-12-09T02:42:35.165Z,8.20
2018-12-09T02:45:05.750Z,8.30
2018-12-09T02:47:35.016Z,8.30
2018-12-09T02:50:05.109Z,8.20
2018-12-09T02:52:34.834Z,8.10
2018-12-09T02:55:05.075Z,8.10
2018-12-09T02:57:34.629Z,8.20
2018-12-09T03:00:04.910Z,8.20
2018-12-09T03:02:34.826Z,8.40
2018-12-09T03:05:05.979Z,8.40
2018-12-09T03:07:35.702Z,8.50
2018-12-09T03:10:05.307Z,8.40
2018-12-09T03:12:34.604Z,8.50
2018-12-09T03:15:05.003Z,8.50
2018-12-09T03:17:34.520Z,8.40
2018-12-09T03:20:04.846Z,8.30
2018-12-09T03:22:34.099Z,8.10
2018-12-09T03:25:03.807Z,7.90
2018-12-09T03:27:33.314Z,7.80
2018-12-09T03:30:02.585Z,7.50
2018-12-09T03:32:33.215Z,7.40
2018-12-09T03:35:03.331Z,7.50
2018-12-09T03:37:32.638Z,7.40
2018-12-09T03:40:02.002Z,7.40
2018-12-09T03:42:32.259Z,7.40
2018-12-09T03:45:01.547Z,7.30
2018-12-09T03:47:31.331Z,7.20
2018-12-09T03:50:00.615Z,7.20
2018-12-09T03:52:30.183Z,7.20
2018-12-09T03:54:59.481Z,7.20
2018-12-09T03:57:28.764Z,7.20
2018-12-09T03:59:58.033Z,7.30
2018-12-09T04:02:27.460Z,7.30
2018-12-09T04:04:56.777Z,7.50
2018-12-09T04:07:26.382Z,7.60
2018-12-09T04:09:57.012Z,7.70
2018-12-09T04:12:26.724Z,7.80
2018-12-09T04:14:56.019Z,7.80
2018-12-09T04:17:25.289Z,7.90
2018-12-09T04:19:54.577Z,8.10
2018-12-09T04:22:24.367Z,8.20
2018-12-09T04:24:54.650Z,8.30
2018-12-09T04:27:24.127Z,8.40
2018-12-09T04:29:53.426Z,8.40
2018-12-09T04:32:22.792Z,8.40
2018-12-09T04:34:52.095Z,8.30
2018-12-09T04:37:21.356Z,8.50
2018-12-09T04:39:50.611Z,8.40
2018-12-09T04:42:19.898Z,8.30
2018-12-09T04:44:49.162Z,8.30
2018-12-09T04:47:18.447Z,8.40
2018-12-09T04:49:47.787Z,8.40
2018-12-09T04:52:17.062Z,8.40
2018-12-09T04:54:46.342Z,8.30
2018-12-09T04:57:16.342Z,8.10
2018-12-09T04:59:49.145Z,8.00
2018-12-09T05:02:18.434Z,8.00
2018-12-09T05:04:47.698Z,7.90
2018-12-09T05:07:17.589Z,7.90
2018-12-09T05:09:46.859Z,7.70
2018-12-09T05:12:16.158Z,7.70
2018-12-09T05:14:45.784Z,7.60
2018-12-09T05:17:15.042Z,7.60
2018-12-09T05:19:44.660Z,7.10
2018-12-09T05:22:13.975Z,7.00
2018-12-09T05:24:43.253Z,6.60
2018-12-09T05:27:12.552Z,6.30
2018-12-09T05:29:41.845Z,6.20
2018-12-09T05:32:11.142Z,6.00
2018-12-09T05:34:40.451Z,6.00
2018-12-09T05:37:09.728Z,6.00
2018-12-09T05:39:39.053Z,5.90
2018-12-09T05:42:08.342Z,5.90
2018-12-09T05:44:37.645Z,5.90
2018-12-09T05:47:07.234Z,5.90
2018-12-09T05:49:36.875Z,5.70
2018-12-09T05:52:06.174Z,5.30
2018-12-09T05:54:35.443Z,5.00
2018-12-09T05:57:04.724Z,4.90
2018-12-09T05:59:33.975Z,4.90
2018-12-09T06:02:14.576Z,5.00
2018-12-09T06:04:44.083Z,4.90
2018-12-09T06:07:13.394Z,5.00
2018-12-09T06:09:42.994Z,4.90
2018-12-09T06:12:12.266Z,4.90
2018-12-09T06:14:41.754Z,4.90
2018-12-09T06:17:11.076Z,4.90
2018-12-09T06:19:40.591Z,4.90
2018-12-09T06:22:09.879Z,4.90
2018-12-09T06:24:40.064Z,4.90
2018-12-09T06:27:09.348Z,5.00
2018-12-09T06:29:38.863Z,5.10
2018-12-09T06:32:08.577Z,5.10
2018-12-09T06:34:37.854Z,5.00
2018-12-09T06:37:07.146Z,5.00
2018-12-09T06:39:36.459Z,5.10
2018-12-09T06:42:05.775Z,5.00
2018-12-09T06:44:35.067Z,5.00
2018-12-09T06:47:05.302Z,5.00
2018-12-09T06:49:34.599Z,5.00
2018-12-09T06:52:03.943Z,5.10
2018-12-09T06:54:33.444Z,5.10
2018-12-09T06:57:02.845Z,5.00
2018-12-09T06:59:32.357Z,4.90
2018-12-09T07:02:01.655Z,4.90
2018-12-09T07:04:30.980Z,4.80
2018-12-09T07:07:00.862Z,4.80
2018-12-09T07:09:30.247Z,4.70
2018-12-09T07:12:01.029Z,4.70
2018-12-09T07:14:30.361Z,4.70
2018-12-09T07:16:59.693Z,4.60
2018-12-09T07:19:28.950Z,4.70
2018-12-09T07:21:59.787Z,4.60
2018-12-09T07:24:29.354Z,4.60
2018-12-09T07:26:59.885Z,4.60
2018-12-09T07:29:29.161Z,4.60
2018-12-09T07:31:58.958Z,4.60
2018-12-09T07:34:28.302Z,4.60
2018-12-09T07:36:58.116Z,4.80
2018-12-09T07:39:27.659Z,4.80
2018-12-09T07:41:57.196Z,4.90
2018-12-09T07:44:27.066Z,4.90
2018-12-09T07:46:56.688Z,5.10
2018-12-09T07:49:25.985Z,5.00
2018-12-09T07:51:55.306Z,5.10
2018-12-09T07:54:24.601Z,5.20
2018-12-09T07:56:53.898Z,5.30
2018-12-09T07:59:23.305Z,5.40
2018-12-09T08:01:53.067Z,5.50
2018-12-09T08:04:22.424Z,5.50
2018-12-09T08:06:52.054Z,5.50
2018-12-09T08:09:22.100Z,5.50
2018-12-09T08:11:51.481Z,5.50
2018-12-09T08:14:20.759Z,5.50
2018-12-09T08:16:50.076Z,5.50
2018-12-09T08:19:19.343Z,5.50
2018-12-09T08:21:48.785Z,5.50
2018-12-09T08:24:18.067Z,5.60
2018-12-09T08:26:48.226Z,5.50
2018-12-09T08:29:17.537Z,5.50
2018-12-09T08:31:47.156Z,5.50
2018-12-09T08:34:16.441Z,5.50
2018-12-09T08:36:45.734Z,5.60
2018-12-09T08:39:15.041Z,5.60
2018-12-09T08:41:44.340Z,5.60
2018-12-09T08:44:13.612Z,5.60
2018-12-09T08:46:42.980Z,5.50
2018-12-09T08:49:12.741Z,5.60
2018-12-09T08:51:43.424Z,5.50
2018-12-09T08:54:12.725Z,5.50
2018-12-09T08:56:42.707Z,5.40
2018-12-09T08:59:12.892Z,5.40
2018-12-09T09:01:42.225Z,5.50
2018-12-09T09:04:12.056Z,5.50
2018-12-09T09:06:41.420Z,5.40
2018-12-09T09:09:10.938Z,5.40
2018-12-09T09:11:40.253Z,5.40
2018-12-09T09:14:09.562Z,5.40
2018-12-09T09:16:38.880Z,5.40
2018-12-09T09:19:08.174Z,5.40
2018-12-09T09:21:37.449Z,5.50
2018-12-09T09:24:06.765Z,5.60
2018-12-09T09:26:36.040Z,5.70
2018-12-09T09:29:05.645Z,5.80
2018-12-09T09:31:35.297Z,5.90
2018-12-09T09:34:04.595Z,5.90
2018-12-09T09:36:33.939Z,5.80
2018-12-09T09:39:04.503Z,5.90
2018-12-09T09:41:36.116Z,5.90
2018-12-09T09:44:05.428Z,6.00
2018-12-09T09:46:34.774Z,6.10
2018-12-09T09:49:04.492Z,6.10
2018-12-09T09:51:33.922Z,6.10
2018-12-09T09:54:04.186Z,6.20
2018-12-09T09:56:33.453Z,6.20
2018-12-09T09:59:03.256Z,6.30
2018-12-09T10:01:32.573Z,6.40
2018-12-09T10:04:01.963Z,6.40
2018-12-09T10:06:31.588Z,6.40
2018-12-09T10:09:00.907Z,6.40
2018-12-09T10:11:30.202Z,6.30
2018-12-09T10:13:59.534Z,6.30
2018-12-09T10:16:29.128Z,6.30
2018-12-09T10:18:58.701Z,6.30
2018-12-09T10:21:27.999Z,6.40
2018-12-09T10:23:57.317Z,6.40
2018-12-09T10:26:26.662Z,6.40
2018-12-09T10:28:56.524Z,6.50
2018-12-09T10:31:25.835Z,6.50
2018-12-09T10:33:55.659Z,6.40
2018-12-09T10:36:24.954Z,6.50
2018-12-09T10:38:54.291Z,6.50
2018-12-09T10:41:23.842Z,6.60
2018-12-09T10:43:54.942Z,6.60
2018-12-09T10:46:29.201Z,6.80
2018-12-09T10:48:58.610Z,6.80
2018-12-09T10:51:27.899Z,6.80
2018-12-09T10:53:57.687Z,6.90
2018-12-09T10:56:26.978Z,6.90
2018-12-09T10:58:56.484Z,6.90
2018-12-09T11:01:47.113Z,6.90
2018-12-09T11:04:16.688Z,6.90
2018-12-09T11:06:46.369Z,6.80
2018-12-09T11:09:15.928Z,6.80
2018-12-09T11:11:45.678Z,6.70
2018-12-09T11:14:14.994Z,6.80
2018-12-09T11:16:44.848Z,6.70
2018-12-09T11:19:14.171Z,6.60
2018-12-09T11:21:43.484Z,6.70
2018-12-09T11:24:12.784Z,6.70
2018-12-09T11:26:44.707Z,6.60
2018-12-09T11:29:13.994Z,6.40
2018-12-09T11:31:44.018Z,6.30
2018-12-09T11:34:13.596Z,6.20
2018-12-09T11:36:43.510Z,6.20
2018-12-09T11:39:12.883Z,6.10
2018-12-09T11:41:42.616Z,6.10
2018-12-09T11:44:11.969Z,6.10
2018-12-09T11:46:41.282Z,6.20
2018-12-09T11:49:11.086Z,6.10
2018-12-09T11:51:40.432Z,6.10
2018-12-09T11:54:10.660Z,6.10
2018-12-09T11:56:40.073Z,6.10
2018-12-09T11:59:09.530Z,6.10
2018-12-09T12:01:39.591Z,6.10
2018-12-09T12:04:09.142Z,6.20
2018-12-09T12:06:38.496Z,6.20
2018-12-09T12:09:08.377Z,6.20
2018-12-09T12:11:38.931Z,6.20
2018-12-09T12:14:08.639Z,6.10
2018-12-09T12:16:37.906Z,6.00
2018-12-09T12:19:07.452Z,6.00
2018-12-09T12:21:36.768Z,6.00
2018-12-09T12:24:06.566Z,6.00
2018-12-09T12:26:36.197Z,5.90
2018-12-09T12:29:05.759Z,5.90
2018-12-09T12:31:35.655Z,5.80
2018-12-09T12:34:04.952Z,5.80
2018-12-09T12:36:34.278Z,5.80
2018-12-09T12:39:05.822Z,5.70
2018-12-09T12:41:35.243Z,5.70
2018-12-09T12:44:05.256Z,5.70
2018-12-09T12:46:34.571Z,5.50
2018-12-09T12:49:04.358Z,5.50
2018-12-09T12:51:33.932Z,5.50
2018-12-09T12:54:05.493Z,5.40
2018-12-09T12:56:36.461Z,5.50
2018-12-09T12:59:06.078Z,5.40
2018-12-09T13:01:35.446Z,5.30
2018-12-09T13:04:05.710Z,5.30
2018-12-09T13:06:35.384Z,5.40
2018-12-09T13:09:08.302Z,5.40
2018-12-09T13:11:39.446Z,5.40
2018-12-09T13:14:08.771Z,5.40
2018-12-09T13:16:38.270Z,5.30
2018-12-09T13:19:08.874Z,5.40
2018-12-09T13:21:38.321Z,5.30
2018-12-09T13:24:08.829Z,5.40
2018-12-09T13:26:38.606Z,5.50
2018-12-09T13:29:08.592Z,5.60
2018-12-09T13:31:39.440Z,5.70
2018-12-09T13:34:08.846Z,5.70
2018-12-09T13:36:40.877Z,5.70
2018-12-09T13:39:10.200Z,5.80
2018-12-09T13:41:39.571Z,5.70
2018-12-09T13:44:08.912Z,5.70
2018-12-09T13:46:38.787Z,5.60
2018-12-09T13:49:08.125Z,5.60
2018-12-09T13:51:38.112Z,5.60
2018-12-09T13:54:07.898Z,5.60
2018-12-09T13:56:37.277Z,5.50
2018-12-09T13:59:06.619Z,5.60
2018-12-09T14:01:36.257Z,5.60
2018-12-09T14:04:06.106Z,5.60
2018-12-09T14:06:35.451Z,5.60
2018-12-09T14:09:07.454Z,5.60
2018-12-09T14:11:37.407Z,5.70
2018-12-09T14:14:06.878Z,5.70
2018-12-09T14:16:36.185Z,5.70
2018-12-09T14:19:05.946Z,5.80
2018-12-09T14:21:35.553Z,5.80
2018-12-09T14:24:05.315Z,5.90
2018-12-09T14:26:34.748Z,5.90
2018-12-09T14:29:04.464Z,6.00
2018-12-09T14:31:34.318Z,6.10
2018-12-09T14:34:03.646Z,6.10
2018-12-09T14:36:33.491Z,6.00
2018-12-09T14:39:02.907Z,6.00
2018-12-09T14:41:32.783Z,5.90
2018-12-09T14:44:02.306Z,6.10
2018-12-09T14:46:31.862Z,6.00
2018-12-09T14:49:01.252Z,6.00
2018-12-09T14:51:30.931Z,6.10
2018-12-09T14:54:01.138Z,6.10
2018-12-09T14:56:30.495Z,6.10
2018-12-09T14:59:00.334Z,6.10
2018-12-09T15:01:29.854Z,6.10
2018-12-09T15:03:59.217Z,6.00
2018-12-09T15:06:28.898Z,6.10
2018-12-09T15:08:59.667Z,6.10
2018-12-09T15:11:29.459Z,6.00
2018-12-09T15:14:00.429Z,6.00
2018-12-09T15:16:30.057Z,6.00
2018-12-09T15:18:59.855Z,5.80
2018-12-09T15:21:29.845Z,5.80
2018-12-09T15:23:59.938Z,5.70
2018-12-09T15:26:30.164Z,5.50
2018-12-09T15:28:59.806Z,5.40
2018-12-09T15:31:31.042Z,5.40
2018-12-09T15:34:00.646Z,5.30
2018-12-09T15:36:30.547Z,5.20
2018-12-09T15:39:00.203Z,5.20
2018-12-09T15:41:29.759Z,5.10
2018-12-09T15:43:59.123Z,5.10
2018-12-09T15:46:28.718Z,5.00
2018-12-09T15:48:58.292Z,5.00
2018-12-09T15:51:27.939Z,4.90
2018-12-09T15:53:58.969Z,5.00
2018-12-09T15:56:29.054Z,5.00
2018-12-09T15:58:58.387Z,4.90
2018-12-09T16:01:28.171Z,4.90
2018-12-09T16:03:58.141Z,4.90
2018-12-09T16:06:27.513Z,4.80
2018-12-09T16:08:56.849Z,4.80
2018-12-09T16:11:26.222Z,4.80
2018-12-09T16:13:55.555Z,4.80
2018-12-09T16:16:25.198Z,4.80
2018-12-09T16:18:54.846Z,4.80
2018-12-09T16:21:24.486Z,4.90
2018-12-09T16:23:53.854Z,4.90
2018-12-09T16:26:24.083Z,4.90
2018-12-09T16:28:54.877Z,4.90
2018-12-09T16:31:24.430Z,4.90
2018-12-09T16:33:55.077Z,5.00
2018-12-09T16:36:25.143Z,5.00
2018-12-09T16:38:54.904Z,5.10
2018-12-09T16:41:24.216Z,5.10
2018-12-09T16:43:53.503Z,5.10
2018-12-09T16:46:23.037Z,5.10
2018-12-09T16:48:52.884Z,5.10
2018-12-09T16:51:22.809Z,5.20
2018-12-09T16:53:52.168Z,5.10
2018-12-09T16:56:21.788Z,5.20
2018-12-09T16:58:51.123Z,5.10
2018-12-09T17:01:20.443Z,5.20
2018-12-09T17:03:49.769Z,5.20
2018-12-09T17:06:19.486Z,5.20
2018-12-09T17:08:49.109Z,5.10
2018-12-09T17:11:18.849Z,5.10
2018-12-09T17:13:48.254Z,5.10
2018-12-09T17:16:17.565Z,5.00
2018-12-09T17:18:47.348Z,5.00
2018-12-09T17:21:17.029Z,5.10
2018-12-09T17:23:47.115Z,5.00
2018-12-09T17:26:16.788Z,5.10
2018-12-09T17:28:46.718Z,5.00
2018-12-09T17:31:16.321Z,5.00
2018-12-09T17:33:45.830Z,5.00
2018-12-09T17:36:15.169Z,5.00
2018-12-09T17:38:44.820Z,4.90
2018-12-09T17:41:14.138Z,5.00
2018-12-09T17:43:44.034Z,5.00
2018-12-09T17:46:13.676Z,5.00
2018-12-09T17:48:43.270Z,5.00
2018-12-09T17:51:12.635Z,4.90
2018-12-09T17:53:42.356Z,4.90
2018-12-09T17:56:11.666Z,4.90
2018-12-09T17:58:42.341Z,4.80
2018-12-09T18:01:17.713Z,4.90
2018-12-09T18:03:47.355Z,4.90
2018-12-09T18:06:16.650Z,4.90
2018-12-09T18:08:46.296Z,4.90
2018-12-09T18:11:15.804Z,4.90
2018-12-09T18:13:45.556Z,4.80
2018-12-09T18:16:15.342Z,4.80
2018-12-09T18:18:46.022Z,4.90
2018-12-09T18:21:16.299Z,4.90
2018-12-09T18:23:45.981Z,4.90
2018-12-09T18:26:15.315Z,4.90
2018-12-09T18:28:44.960Z,4.90
2018-12-09T18:31:17.285Z,4.90
2018-12-09T18:33:47.696Z,4.90
2018-12-09T18:36:17.570Z,4.90
2018-12-09T18:38:47.656Z,5.00
2018-12-09T18:41:19.469Z,5.00
2018-12-09T18:43:49.099Z,5.00
2018-12-09T18:46:18.483Z,5.10
2018-12-09T18:48:49.115Z,5.10
2018-12-09T18:51:18.447Z,5.10
2018-12-09T18:53:48.047Z,5.20
2018-12-09T18:56:17.843Z,5.20
2018-12-09T18:58:47.908Z,5.20
2018-12-09T19:01:17.205Z,5.30
2018-12-09T19:03:46.901Z,5.40
2018-12-09T19:06:16.700Z,5.30
2018-12-09T19:08:47.439Z,5.40
2018-12-09T19:11:17.893Z,5.30
2018-12-09T19:13:47.678Z,5.30
2018-12-09T19:16:17.076Z,5.30
2018-12-09T19:18:46.444Z,5.20
2018-12-09T19:21:15.961Z,5.30
2018-12-09T19:23:45.601Z,5.30
2018-12-09T19:26:16.772Z,5.30
2018-12-09T19:28:46.460Z,5.30
2018-12-09T19:31:15.927Z,5.30
2018-12-09T19:33:45.320Z,5.30
2018-12-09T19:36:15.974Z,5.30
2018-12-09T19:38:45.312Z,5.20
2018-12-09T19:41:14.640Z,5.40
2018-12-09T19:43:44.590Z,5.20
2018-12-09T19:46:14.958Z,5.20
2018-12-09T19:48:44.472Z,5.30
2018-12-09T19:51:13.771Z,5.20
2018-12-09T19:56:33.523Z,5.10
2018-12-09T19:59:02.889Z,5.10
2018-12-09T20:01:32.390Z,5.20
2018-12-09T20:04:01.728Z,5.20
2018-12-09T20:06:31.236Z,5.20
2018-12-09T20:09:00.533Z,5.20
2018-12-09T20:11:33.014Z,5.30
2018-12-09T20:14:02.356Z,5.30
2018-12-09T20:16:33.710Z,5.20
2018-12-09T20:19:04.321Z,5.30
2018-12-09T20:21:34.013Z,5.20
2018-12-09T20:24:04.174Z,5.20
2018-12-09T20:26:33.446Z,5.30
2018-12-09T20:29:02.982Z,5.30
2018-12-09T20:31:32.388Z,5.20
2018-12-09T20:34:01.745Z,5.20
2018-12-09T20:36:31.158Z,5.30
2018-12-09T20:39:01.314Z,5.20
2018-12-09T20:41:32.361Z,5.20
2018-12-09T20:44:01.703Z,5.20
2018-12-09T20:46:31.061Z,5.20
2018-12-09T20:49:00.745Z,5.30
2018-12-09T20:51:30.130Z,5.20
2018-12-09T20:53:59.606Z,5.30
2018-12-09T20:56:28.943Z,5.30
2018-12-09T20:58:58.509Z,5.40
2018-12-09T21:01:27.854Z,5.30
2018-12-09T21:03:57.210Z,5.40
2018-12-09T21:06:26.681Z,5.30
2018-12-09T21:08:56.019Z,5.30
2018-12-09T21:11:25.645Z,5.40
2018-12-09T21:13:55.079Z,5.40
2018-12-09T21:16:24.727Z,5.30
2018-12-09T21:18:54.123Z,5.20
2018-12-09T21:21:23.612Z,5.20
2018-12-09T21:23:52.917Z,5.20
2018-12-09T21:26:22.880Z,5.10
2018-12-09T21:28:52.189Z,5.20
2018-12-09T21:31:21.690Z,5.20
2018-12-09T21:33:50.978Z,5.20
2018-12-09T21:36:20.401Z,5.20
2018-12-09T21:38:50.047Z,5.20
2018-12-09T21:41:19.876Z,5.10
2018-12-09T21:43:49.301Z,5.10
2018-12-09T21:46:18.761Z,5.00
2018-12-09T21:48:48.185Z,4.90
2018-12-09T21:51:17.760Z,4.80
2018-12-09T21:53:47.403Z,4.70
2018-12-09T21:56:17.056Z,4.70
2018-12-09T21:58:46.368Z,4.60
2018-12-09T22:01:16.439Z,4.60
2018-12-09T22:03:46.034Z,4.50
2018-12-09T22:06:15.894Z,4.50
2018-12-09T22:08:46.600Z,4.50
2018-12-09T22:11:16.167Z,4.50
2018-12-09T22:13:46.416Z,4.50
2018-12-09T22:16:15.939Z,4.50
2018-12-09T22:18:45.799Z,4.50
2018-12-09T22:21:16.504Z,4.50
2018-12-09T22:23:46.377Z,4.40
2018-12-09T22:26:15.684Z,4.50
2018-12-09T22:28:46.166Z,4.40
2018-12-09T22:31:15.805Z,4.40
2018-12-09T22:33:45.424Z,4.30
2018-12-09T22:36:14.746Z,4.40
2018-12-09T22:38:44.296Z,4.30
2018-12-09T22:41:13.900Z,4.30
2018-12-09T22:43:43.639Z,4.40
2018-12-09T22:46:13.412Z,4.40
2018-12-09T22:48:43.137Z,4.40
2018-12-09T22:51:13.036Z,4.30
2018-12-09T22:53:42.491Z,4.40
2018-12-09T22:56:12.571Z,4.40
2018-12-09T22:58:42.242Z,4.40
2018-12-09T23:01:19.083Z,4.50
2018-12-09T23:03:51.500Z,4.50
2018-12-09T23:06:20.801Z,4.50
2018-12-09T23:08:50.509Z,4.50
2018-12-09T23:11:19.864Z,4.50
2018-12-09T23:13:49.876Z,4.60
2018-12-09T23:16:19.474Z,4.60
2018-12-09T23:18:49.333Z,4.60
2018-12-09T23:21:19.262Z,4.70
2018-12-09T23:23:48.554Z,4.60
2018-12-09T23:26:18.157Z,4.60
2018-12-09T23:28:48.061Z,4.60
2018-12-09T23:31:17.374Z,4.60
2018-12-09T23:33:46.680Z,4.60
2018-12-09T23:36:16.247Z,4.60
2018-12-09T23:38:45.578Z,4.60
2018-12-09T23:41:14.896Z,4.60
2018-12-09T23:43:44.411Z,4.60
2018-12-09T23:46:13.679Z,4.70
2018-12-09T23:48:44.618Z,4.60
2018-12-09T23:51:13.912Z,4.60
2018-12-09T23:53:43.790Z,4.70
2018-12-09T23:56:13.330Z,4.70
2018-12-09T23:58:42.701Z,4.70
